createdAt,value
2022-10-05T00:00:01.762Z,4.20
2022-10-05T00:01:36.366Z,4.28
2022-10-05T00:03:11.079Z,4.05
2022-10-05T00:04:44.058Z,4.25
2022-10-05T00:06:17.013Z,4.32
2022-10-05T00:07:53.008Z,4.10
2022-10-05T00:09:25.962Z,4.28
2022-10-05T00:10:58.968Z,4.15
2022-10-05T00:12:31.911Z,4.22
2022-10-05T00:14:13.733Z,4.40
2022-10-05T00:15:46.736Z,4.15
2022-10-05T00:17:21.748Z,4.32
2022-10-05T00:18:55.097Z,4.00
2022-10-05T00:22:00.290Z,4.60
2022-10-05T00:23:34.586Z,4.32
2022-10-05T00:25:13.249Z,4.25
2022-10-05T00:26:47.051Z,4.10
2022-10-05T00:28:26.726Z,4.03
2022-10-05T00:30:03.610Z,4.63
2022-10-05T00:31:38.369Z,4.55
2022-10-05T00:33:10.280Z,3.97
2022-10-05T00:34:44.147Z,4.25
2022-10-05T00:36:17.535Z,4.32
2022-10-05T00:39:27.178Z,3.80
2022-10-05T00:41:09.649Z,3.75
2022-10-05T00:42:52.698Z,4.20
2022-10-05T00:44:32.943Z,4.35
2022-10-05T00:46:11.611Z,3.92
2022-10-05T00:47:54.208Z,3.90
2022-10-05T00:49:45.317Z,4.00
2022-10-05T00:51:26.140Z,4.13
2022-10-05T00:53:10.620Z,4.20
2022-10-05T00:54:50.406Z,3.95
2022-10-05T00:56:35.940Z,4.18
2022-10-05T00:58:19.159Z,4.78
2022-10-05T01:00:02.474Z,4.60
2022-10-05T01:01:40.246Z,5.00
2022-10-05T01:03:20.683Z,4.20
2022-10-05T01:04:57.728Z,4.03
2022-10-05T01:06:42.003Z,4.43
2022-10-05T01:08:26.301Z,4.70
2022-10-05T01:10:07.711Z,4.45
2022-10-05T01:11:49.940Z,4.55
2022-10-05T01:13:33.857Z,4.40
2022-10-05T01:16:49.622Z,4.45
2022-10-05T01:18:29.788Z,4.72
2022-10-05T01:20:23.822Z,4.20
2022-10-05T01:22:06.539Z,4.85
2022-10-05T01:24:14.294Z,4.80
2022-10-05T01:26:00.413Z,4.25
2022-10-05T01:27:55.327Z,4.22
2022-10-05T01:29:35.248Z,3.95
2022-10-05T01:31:17.472Z,4.78
2022-10-05T01:32:59.319Z,4.00
2022-10-05T01:34:39.605Z,4.18
2022-10-05T01:36:20.027Z,4.32
2022-10-05T01:38:06.903Z,4.30
2022-10-05T01:39:46.577Z,4.25
2022-10-05T01:41:30.655Z,4.75
2022-10-05T01:43:11.696Z,5.13
2022-10-05T01:44:52.265Z,4.97
2022-10-05T01:46:33.051Z,4.95
2022-10-05T01:48:10.461Z,5.05
2022-10-05T01:49:49.008Z,5.30
2022-10-05T01:51:32.047Z,5.55
2022-10-05T01:53:15.539Z,5.63
2022-10-05T01:54:57.443Z,5.32
2022-10-05T01:56:40.027Z,5.50
2022-10-05T01:58:23.094Z,6.22
2022-10-05T02:00:07.522Z,7.82
2022-10-05T02:01:46.171Z,6.40
2022-10-05T02:03:22.093Z,6.00
2022-10-05T02:05:02.307Z,5.85
2022-10-05T02:06:41.587Z,6.00
2022-10-05T02:08:18.789Z,5.20
2022-10-05T02:09:56.445Z,4.68
2022-10-05T02:11:29.417Z,4.82
2022-10-05T02:13:07.751Z,4.32
2022-10-05T02:14:44.456Z,5.00
2022-10-05T02:16:20.042Z,5.50
2022-10-05T02:17:58.653Z,5.45
2022-10-05T02:19:36.387Z,5.30
2022-10-05T02:21:09.962Z,5.70
2022-10-05T02:22:47.522Z,6.13
2022-10-05T02:24:25.783Z,5.35
2022-10-05T02:25:59.795Z,5.40
2022-10-05T02:27:37.807Z,5.45
2022-10-05T02:29:14.344Z,6.28
2022-10-05T02:30:53.938Z,4.80
2022-10-05T02:32:30.368Z,4.80
2022-10-05T02:34:27.945Z,5.00
2022-10-05T02:36:03.414Z,4.82
2022-10-05T02:37:43.152Z,5.20
2022-10-05T02:39:24.750Z,4.90
2022-10-05T02:41:08.692Z,4.70
2022-10-05T02:42:50.108Z,4.82
2022-10-05T02:44:29.799Z,5.03
2022-10-05T02:46:14.495Z,4.93
2022-10-05T02:47:59.520Z,4.40
2022-10-05T02:49:42.057Z,4.72
2022-10-05T02:51:22.386Z,4.38
2022-10-05T02:53:09.672Z,5.07
2022-10-05T02:54:50.972Z,4.50
2022-10-05T02:56:30.994Z,4.68
2022-10-05T02:58:07.887Z,4.53
2022-10-05T02:59:47.834Z,4.80
2022-10-05T03:01:26.633Z,4.85
2022-10-05T03:03:05.202Z,4.93
2022-10-05T03:04:43.572Z,4.63
2022-10-05T03:06:22.526Z,4.80
2022-10-05T03:08:02.040Z,4.22
2022-10-05T03:09:40.363Z,4.82
2022-10-05T03:11:23.879Z,4.60
2022-10-05T03:13:05.794Z,4.78
2022-10-05T03:14:49.522Z,4.68
2022-10-05T03:16:38.880Z,4.88
2022-10-05T03:18:20.774Z,4.82
2022-10-05T03:20:13.011Z,5.05
2022-10-05T03:21:56.629Z,4.88
2022-10-05T03:23:43.877Z,4.80
2022-10-05T03:25:37.236Z,4.60
2022-10-05T03:27:20.612Z,4.70
2022-10-05T03:29:02.106Z,5.40
2022-10-05T03:30:37.855Z,4.72
2022-10-05T03:32:22.285Z,4.70
2022-10-05T03:34:01.115Z,5.22
2022-10-05T03:35:44.133Z,5.30
2022-10-05T03:37:22.127Z,5.32
2022-10-05T03:39:03.127Z,5.47
2022-10-05T03:40:40.776Z,5.10
2022-10-05T03:42:25.495Z,5.55
2022-10-05T03:44:28.089Z,5.80
2022-10-05T03:46:08.726Z,5.57
2022-10-05T03:47:50.656Z,4.97
2022-10-05T03:49:32.987Z,5.35
2022-10-05T03:51:12.959Z,5.82
2022-10-05T03:52:49.715Z,5.75
2022-10-05T03:54:28.112Z,5.28
2022-10-05T03:56:07.002Z,5.50
2022-10-05T03:57:42.096Z,5.38
2022-10-05T03:59:19.486Z,5.30
2022-10-05T04:00:58.129Z,5.47
2022-10-05T04:02:34.537Z,5.68
2022-10-05T04:04:14.903Z,4.88
2022-10-05T04:05:51.515Z,6.38
2022-10-05T04:07:33.161Z,9.85
2022-10-05T04:09:12.076Z,8.63
2022-10-05T04:10:49.291Z,6.60
2022-10-05T04:12:26.615Z,6.28
2022-10-05T04:14:04.207Z,6.88
2022-10-05T04:15:43.522Z,4.95
2022-10-05T04:17:19.613Z,5.55
2022-10-05T04:18:57.354Z,6.97
2022-10-05T04:20:39.309Z,7.18
2022-10-05T04:22:19.166Z,6.10
2022-10-05T04:23:59.825Z,5.90
2022-10-05T04:25:38.180Z,5.95
2022-10-05T04:27:17.371Z,5.90
2022-10-05T04:28:55.523Z,5.07
2022-10-05T04:30:28.664Z,4.95
2022-10-05T04:32:22.931Z,5.07
2022-10-05T04:34:10.311Z,5.72
2022-10-05T04:36:14.009Z,5.30
2022-10-05T04:37:59.146Z,6.80
2022-10-05T04:39:42.343Z,5.85
2022-10-05T04:41:31.448Z,5.60
2022-10-05T04:43:10.692Z,5.57
2022-10-05T04:44:59.458Z,5.47
2022-10-05T04:46:45.421Z,5.82
2022-10-05T04:48:45.571Z,5.80
2022-10-05T04:50:31.146Z,5.60
2022-10-05T04:52:15.956Z,5.70
2022-10-05T04:53:55.373Z,5.68
2022-10-05T04:55:33.857Z,5.53
2022-10-05T04:57:12.913Z,5.28
2022-10-05T04:59:00.650Z,5.88
2022-10-05T05:00:47.407Z,5.97
2022-10-05T05:02:27.170Z,6.18
2022-10-05T05:04:23.730Z,6.18
2022-10-05T05:06:17.284Z,6.07
2022-10-05T05:07:59.647Z,5.57
2022-10-05T05:10:03.684Z,6.70
2022-10-05T05:11:46.383Z,5.70
2022-10-05T05:13:39.066Z,5.85
2022-10-05T05:15:27.076Z,6.00
2022-10-05T05:17:18.490Z,6.32
2022-10-05T05:19:07.034Z,6.25
2022-10-05T05:20:52.912Z,5.70
2022-10-05T05:22:36.393Z,6.40
2022-10-05T05:24:20.397Z,6.40
2022-10-05T05:26:02.308Z,6.00
2022-10-05T05:27:47.974Z,5.90
2022-10-05T05:29:27.541Z,5.53
2022-10-05T05:31:11.726Z,6.00
2022-10-05T05:33:02.371Z,6.43
2022-10-05T05:34:47.592Z,7.38
2022-10-05T05:36:45.130Z,6.95
2022-10-05T05:38:26.985Z,5.80
2022-10-05T05:40:09.670Z,6.28
2022-10-05T05:41:49.578Z,6.13
2022-10-05T05:43:27.706Z,5.80
2022-10-05T05:45:08.564Z,6.20
2022-10-05T05:47:02.867Z,6.05
2022-10-05T05:48:39.517Z,6.30
2022-10-05T05:50:32.185Z,5.97
2022-10-05T05:52:11.669Z,6.25
2022-10-05T05:53:46.590Z,6.50
2022-10-05T05:55:29.923Z,6.70
2022-10-05T05:58:49.855Z,6.82
2022-10-05T06:00:26.425Z,6.50
2022-10-05T06:02:07.048Z,6.47
2022-10-05T06:03:45.125Z,6.28
2022-10-05T06:05:34.701Z,6.53
2022-10-05T06:07:12.206Z,5.97
2022-10-05T06:08:48.614Z,5.80
2022-10-05T06:10:31.873Z,5.85
2022-10-05T06:12:09.492Z,7.22
2022-10-05T06:13:44.191Z,6.88
2022-10-05T06:15:30.917Z,6.18
2022-10-05T06:17:11.276Z,6.18
2022-10-05T06:18:49.251Z,6.40
2022-10-05T06:20:34.569Z,7.10
2022-10-05T06:22:13.024Z,6.95
2022-10-05T06:23:51.638Z,6.70
2022-10-05T06:25:36.753Z,7.40
2022-10-05T06:27:25.574Z,6.93
2022-10-05T06:29:03.061Z,6.60
2022-10-05T06:30:50.109Z,6.55
2022-10-05T06:32:30.154Z,6.78
2022-10-05T06:34:14.591Z,6.78
2022-10-05T06:35:58.783Z,6.88
2022-10-05T06:37:49.423Z,6.38
2022-10-05T06:39:43.164Z,6.75
2022-10-05T06:41:26.624Z,6.80
2022-10-05T06:43:15.621Z,6.75
2022-10-05T06:44:56.719Z,7.05
2022-10-05T06:46:33.796Z,6.70
2022-10-05T06:48:17.304Z,6.72
2022-10-05T06:49:57.506Z,7.35
2022-10-05T06:51:38.652Z,7.25
2022-10-05T06:53:28.267Z,6.70
2022-10-05T06:55:17.598Z,6.97
2022-10-05T06:57:00.857Z,7.43
2022-10-05T06:58:49.195Z,7.05
2022-10-05T07:00:24.834Z,8.98
2022-10-05T07:02:07.094Z,7.35
2022-10-05T07:03:49.916Z,6.72
2022-10-05T07:05:46.575Z,7.05
2022-10-05T07:07:28.212Z,7.00
2022-10-05T07:09:15.462Z,7.22
2022-10-05T07:11:05.838Z,6.57
2022-10-05T07:12:57.668Z,6.35
2022-10-05T07:14:51.500Z,7.00
2022-10-05T07:16:33.772Z,6.50
2022-10-05T07:18:33.129Z,6.88
2022-10-05T07:20:17.341Z,6.25
2022-10-05T07:22:01.723Z,6.95
2022-10-05T07:23:49.103Z,6.82
2022-10-05T07:25:28.704Z,7.18
2022-10-05T07:27:10.895Z,6.60
2022-10-05T07:28:50.125Z,6.93
2022-10-05T07:30:23.349Z,6.55
2022-10-05T07:32:05.610Z,6.50
2022-10-05T07:33:45.858Z,7.05
2022-10-05T07:35:43.284Z,6.22
2022-10-05T07:37:38.230Z,6.53
2022-10-05T07:39:17.971Z,6.88
2022-10-05T07:40:57.091Z,6.72
2022-10-05T07:42:50.469Z,6.55
2022-10-05T07:44:33.257Z,6.57
2022-10-05T07:46:14.541Z,7.18
2022-10-05T07:47:54.075Z,7.43
2022-10-05T07:49:35.534Z,7.35
2022-10-05T07:51:18.904Z,6.88
2022-10-05T07:52:58.040Z,7.03
2022-10-05T07:54:45.295Z,6.85
2022-10-05T07:56:26.716Z,6.25
2022-10-05T07:58:13.069Z,6.95
2022-10-05T07:59:56.699Z,6.00
2022-10-05T08:01:33.306Z,6.85
2022-10-05T08:03:12.070Z,7.97
2022-10-05T08:04:52.345Z,6.70
2022-10-05T08:06:45.033Z,7.18
2022-10-05T08:08:25.504Z,6.90
2022-10-05T08:10:04.628Z,6.35
2022-10-05T08:11:44.626Z,7.82
2022-10-05T08:13:23.024Z,6.85
2022-10-05T08:15:01.180Z,6.88
2022-10-05T08:16:38.816Z,6.53
2022-10-05T08:18:17.671Z,5.82
2022-10-05T08:19:57.628Z,6.28
2022-10-05T08:21:36.275Z,6.30
2022-10-05T08:23:19.393Z,6.47
2022-10-05T08:25:00.010Z,6.03
2022-10-05T08:26:40.056Z,7.15
2022-10-05T08:28:18.504Z,6.40
2022-10-05T08:29:59.102Z,6.18
2022-10-05T08:31:37.274Z,6.57
2022-10-05T08:33:17.809Z,6.55
2022-10-05T08:34:56.588Z,6.70
2022-10-05T08:36:44.815Z,6.35
2022-10-05T08:38:20.395Z,6.45
2022-10-05T08:39:57.000Z,6.93
2022-10-05T08:42:09.272Z,6.53
2022-10-05T08:44:05.580Z,6.45
2022-10-05T08:46:01.649Z,6.50
2022-10-05T08:47:58.686Z,6.38
2022-10-05T08:50:19.685Z,6.22
2022-10-05T08:52:24.016Z,5.93
2022-10-05T08:54:26.619Z,6.10
2022-10-05T08:56:28.497Z,5.65
2022-10-05T08:58:26.947Z,5.70
2022-10-05T09:00:17.770Z,5.88
2022-10-05T09:02:18.298Z,5.93
2022-10-05T09:04:20.619Z,5.88
2022-10-05T09:06:23.137Z,6.05
2022-10-05T09:08:24.265Z,5.60
2022-10-05T09:10:36.995Z,4.80
2022-10-05T09:12:24.665Z,4.90
2022-10-05T09:14:24.974Z,5.53
2022-10-05T09:16:19.402Z,5.50
2022-10-05T09:18:22.517Z,5.30
2022-10-05T09:20:23.980Z,5.20
2022-10-05T09:21:58.652Z,5.28
2022-10-05T09:23:40.028Z,5.43
2022-10-05T09:25:22.559Z,4.90
2022-10-05T09:27:15.035Z,5.05
2022-10-05T09:29:09.342Z,6.13
2022-10-05T09:32:50.300Z,5.72
2022-10-05T09:34:57.128Z,5.35
2022-10-05T09:37:13.979Z,4.85
2022-10-05T09:39:20.191Z,5.10
2022-10-05T09:41:33.216Z,5.57
2022-10-05T09:43:18.835Z,5.65
2022-10-05T09:45:21.339Z,6.22
2022-10-05T09:47:27.670Z,5.75
2022-10-05T09:49:17.503Z,5.38
2022-10-05T09:51:37.661Z,5.00
2022-10-05T09:53:43.173Z,5.88
2022-10-05T09:55:43.426Z,5.60
2022-10-05T09:57:59.271Z,7.22
2022-10-05T10:00:03.687Z,4.63
2022-10-05T10:01:51.813Z,4.93
2022-10-05T10:04:10.097Z,5.00
2022-10-05T10:06:12.308Z,4.70
2022-10-05T10:08:05.656Z,5.28
2022-10-05T10:09:49.854Z,4.88
2022-10-05T10:11:50.021Z,4.28
2022-10-05T10:13:49.212Z,4.10
2022-10-05T10:15:45.062Z,4.50
2022-10-05T10:17:44.174Z,4.32
2022-10-05T10:19:43.302Z,4.47
2022-10-05T10:21:34.682Z,4.40
2022-10-05T10:23:33.657Z,3.65
2022-10-05T10:25:28.479Z,4.78
2022-10-05T10:27:27.450Z,4.40
2022-10-05T10:31:17.915Z,3.97
2022-10-05T10:33:30.596Z,4.50
2022-10-05T10:35:15.190Z,4.78
2022-10-05T10:37:11.546Z,4.10
2022-10-05T10:38:58.401Z,4.15
2022-10-05T10:40:38.803Z,3.95
2022-10-05T10:42:28.868Z,4.10
2022-10-05T10:44:38.102Z,4.22
2022-10-05T10:46:22.193Z,3.72
2022-10-05T10:48:57.414Z,4.10
2022-10-05T10:51:13.578Z,4.00
2022-10-05T10:53:10.069Z,4.57
2022-10-05T10:55:17.682Z,6.82
2022-10-05T10:57:04.396Z,5.40
2022-10-05T10:59:08.940Z,4.85
2022-10-05T11:00:54.409Z,4.00
2022-10-05T11:03:14.861Z,4.10
2022-10-05T11:05:08.060Z,3.95
2022-10-05T11:07:24.518Z,3.80
2022-10-05T11:09:25.106Z,3.53
2022-10-05T11:11:40.181Z,3.80
2022-10-05T11:15:24.009Z,3.75
2022-10-05T11:17:22.341Z,3.60
2022-10-05T11:19:39.902Z,3.78
2022-10-05T11:21:25.643Z,3.58
2022-10-05T11:23:07.166Z,4.20
2022-10-05T11:25:04.681Z,4.00
2022-10-05T11:27:07.498Z,3.40
2022-10-05T11:29:17.817Z,3.70
2022-10-05T11:31:19.237Z,3.70
2022-10-05T11:33:22.447Z,3.50
2022-10-05T11:35:16.400Z,3.60
2022-10-05T11:37:32.261Z,3.35
2022-10-05T11:39:36.775Z,3.20
2022-10-05T11:41:28.338Z,3.63
2022-10-05T11:43:49.825Z,3.42
2022-10-05T11:45:26.551Z,3.20
2022-10-05T11:47:04.959Z,3.28
2022-10-05T11:48:57.803Z,3.75
2022-10-05T11:50:38.400Z,3.60
2022-10-05T11:52:17.876Z,3.63
2022-10-05T11:53:58.525Z,4.13
2022-10-05T11:55:36.803Z,3.78
2022-10-05T11:57:14.602Z,3.40
2022-10-05T11:58:54.714Z,3.50
2022-10-05T12:00:34.235Z,3.90
2022-10-05T12:02:42.799Z,3.50
2022-10-05T12:04:20.892Z,3.47
2022-10-05T12:06:13.825Z,5.10
2022-10-05T12:08:01.214Z,3.72
2022-10-05T12:10:01.505Z,4.50
2022-10-05T12:11:54.318Z,2.95
2022-10-05T12:13:40.669Z,3.60
2022-10-05T12:16:58.958Z,3.25
2022-10-05T12:18:54.656Z,3.10
2022-10-05T12:20:34.934Z,3.05
2022-10-05T12:22:15.965Z,2.78
2022-10-05T12:23:55.868Z,3.35
2022-10-05T12:25:33.238Z,5.40
2022-10-05T12:27:12.786Z,5.78
2022-10-05T12:28:50.914Z,2.90
2022-10-05T12:30:33.767Z,2.90
2022-10-05T12:32:13.355Z,3.13
2022-10-05T12:33:58.489Z,3.28
2022-10-05T12:35:47.754Z,3.35
2022-10-05T12:37:41.924Z,3.10
2022-10-05T12:39:20.131Z,2.80
2022-10-05T12:40:59.634Z,3.35
2022-10-05T12:42:42.054Z,2.70
2022-10-05T12:44:20.103Z,2.90
2022-10-05T12:46:07.247Z,2.53
2022-10-05T12:47:53.910Z,2.60
2022-10-05T12:50:06.864Z,3.42
2022-10-05T12:51:44.079Z,3.58
2022-10-05T12:53:30.005Z,2.92
2022-10-05T12:55:11.394Z,3.10
2022-10-05T12:56:49.774Z,3.38
2022-10-05T12:58:31.461Z,2.60
2022-10-05T13:00:09.494Z,2.85
2022-10-05T13:01:48.760Z,2.78
2022-10-05T13:03:26.552Z,3.05
2022-10-05T13:05:14.312Z,3.30
2022-10-05T13:06:58.381Z,2.80
2022-10-05T13:08:42.767Z,3.25
2022-10-05T13:10:28.649Z,2.80
2022-10-05T13:12:07.183Z,2.75
2022-10-05T13:13:52.930Z,3.10
2022-10-05T13:15:32.332Z,2.92
2022-10-05T13:17:17.104Z,2.50
2022-10-05T13:19:06.421Z,2.42
2022-10-05T13:20:46.901Z,2.60
2022-10-05T13:22:32.166Z,2.92
2022-10-05T13:24:13.321Z,2.25
2022-10-05T13:25:55.137Z,3.15
2022-10-05T13:27:31.357Z,3.10
2022-10-05T13:29:13.808Z,2.45
2022-10-05T13:30:54.173Z,2.45
2022-10-05T13:32:32.064Z,2.60
2022-10-05T13:34:18.742Z,2.55
2022-10-05T13:36:02.643Z,2.40
2022-10-05T13:37:44.976Z,2.40
2022-10-05T13:39:37.567Z,2.30
2022-10-05T13:41:17.660Z,2.90
2022-10-05T13:42:59.630Z,2.53
2022-10-05T13:44:39.700Z,2.50
2022-10-05T13:46:24.433Z,2.40
2022-10-05T13:48:12.997Z,2.63
2022-10-05T13:49:51.454Z,2.65
2022-10-05T13:51:30.402Z,2.53
2022-10-05T13:53:17.133Z,3.00
2022-10-05T13:54:59.098Z,3.25
2022-10-05T13:56:35.262Z,2.85
2022-10-05T13:58:16.578Z,2.70
2022-10-05T13:59:54.932Z,2.80
2022-10-05T14:01:36.117Z,2.30
2022-10-05T14:03:27.474Z,2.60
2022-10-05T14:05:01.983Z,2.90
2022-10-05T14:06:38.090Z,3.50
2022-10-05T14:08:18.279Z,3.10
2022-10-05T14:09:51.375Z,3.00
2022-10-05T14:11:31.237Z,2.70
2022-10-05T14:13:18.877Z,2.90
2022-10-05T14:14:53.908Z,2.58
2022-10-05T14:16:27.036Z,2.40
2022-10-05T14:19:42.161Z,2.30
2022-10-05T14:21:23.520Z,2.50
2022-10-05T14:23:01.147Z,2.70
2022-10-05T14:24:44.244Z,2.53
2022-10-05T14:26:33.076Z,2.65
2022-10-05T14:28:28.421Z,3.10
2022-10-05T14:30:18.047Z,3.00
2022-10-05T14:31:55.280Z,2.22
2022-10-05T14:33:30.768Z,2.03
2022-10-05T14:35:14.787Z,2.20
2022-10-05T14:36:56.187Z,1.90
2022-10-05T14:38:33.986Z,1.98
2022-10-05T14:40:23.476Z,2.10
2022-10-05T14:41:56.612Z,1.90
2022-10-05T14:45:14.665Z,2.45
2022-10-05T14:46:55.252Z,2.10
2022-10-05T14:48:30.959Z,2.88
2022-10-05T14:50:21.284Z,2.40
2022-10-05T14:51:55.161Z,2.75
2022-10-05T14:53:41.352Z,2.30
2022-10-05T14:55:41.470Z,2.85
2022-10-05T14:57:25.187Z,2.38
2022-10-05T14:59:23.290Z,2.53
2022-10-05T15:01:02.823Z,2.30
2022-10-05T15:03:04.913Z,3.50
2022-10-05T15:04:43.702Z,3.47
2022-10-05T15:06:26.968Z,2.58
2022-10-05T15:08:10.838Z,3.10
2022-10-05T15:09:56.858Z,2.80
2022-10-05T15:11:38.694Z,2.85
2022-10-05T15:13:16.915Z,3.10
2022-10-05T15:14:52.969Z,2.75
2022-10-05T15:16:30.994Z,3.00
2022-10-05T15:18:14.981Z,6.82
2022-10-05T15:19:59.813Z,2.90
2022-10-05T15:21:54.556Z,2.70
2022-10-05T15:23:36.345Z,3.17
2022-10-05T15:25:16.016Z,2.58
2022-10-05T15:26:51.457Z,2.80
2022-10-05T15:28:38.820Z,2.70
2022-10-05T15:30:15.605Z,2.95
2022-10-05T15:31:57.480Z,2.45
2022-10-05T15:33:35.467Z,2.55
2022-10-05T15:35:36.027Z,2.63
2022-10-05T15:37:16.143Z,2.83
2022-10-05T15:39:00.524Z,2.67
2022-10-05T15:40:40.599Z,2.50
2022-10-05T15:42:17.371Z,2.42
2022-10-05T15:44:10.486Z,2.50
2022-10-05T15:45:53.712Z,2.50
2022-10-05T15:47:44.620Z,2.63
2022-10-05T15:49:26.385Z,2.70
2022-10-05T15:51:07.101Z,2.70
2022-10-05T15:52:48.315Z,3.00
2022-10-05T15:54:42.291Z,2.50
2022-10-05T15:56:24.206Z,2.80
2022-10-05T15:58:28.739Z,2.58
2022-10-05T16:00:04.965Z,2.92
2022-10-05T16:01:48.264Z,3.17
2022-10-05T16:03:27.200Z,2.92
2022-10-05T16:05:09.034Z,3.33
2022-10-05T16:07:06.876Z,2.88
2022-10-05T16:08:58.497Z,2.90
2022-10-05T16:10:35.002Z,2.65
2022-10-05T16:12:19.039Z,3.17
2022-10-05T16:14:03.418Z,2.60
2022-10-05T16:15:42.630Z,2.70
2022-10-05T16:17:28.201Z,3.20
2022-10-05T16:19:08.055Z,2.78
2022-10-05T16:20:51.029Z,3.08
2022-10-05T16:22:37.902Z,3.10
2022-10-05T16:24:25.740Z,2.70
2022-10-05T16:26:13.160Z,2.97
2022-10-05T16:28:05.357Z,2.80
2022-10-05T16:29:45.443Z,3.53
2022-10-05T16:31:23.137Z,3.67
2022-10-05T16:33:05.702Z,5.03
2022-10-05T16:34:54.202Z,3.58
2022-10-05T16:36:44.400Z,3.20
2022-10-05T16:38:28.305Z,3.50
2022-10-05T16:40:07.035Z,3.40
2022-10-05T16:41:47.523Z,3.08
2022-10-05T16:43:30.694Z,3.53
2022-10-05T16:45:24.596Z,3.30
2022-10-05T16:47:05.114Z,2.83
2022-10-05T16:48:48.500Z,3.10
2022-10-05T16:50:27.290Z,3.20
2022-10-05T16:52:01.563Z,3.03
2022-10-05T16:53:40.708Z,2.72
2022-10-05T16:55:21.778Z,2.78
2022-10-05T16:56:57.673Z,3.10
2022-10-05T16:58:43.518Z,2.92
2022-10-05T17:00:21.603Z,2.95
2022-10-05T17:02:05.647Z,3.10
2022-10-05T17:03:58.166Z,2.83
2022-10-05T17:05:55.727Z,3.53
2022-10-05T17:07:53.145Z,3.00
2022-10-05T17:09:53.121Z,2.83
2022-10-05T17:11:39.151Z,3.03
2022-10-05T17:13:28.525Z,3.10
2022-10-05T17:15:18.937Z,3.10
2022-10-05T17:17:05.236Z,3.00
2022-10-05T17:19:19.218Z,3.13
2022-10-05T17:20:58.923Z,3.10
2022-10-05T17:22:36.042Z,3.47
2022-10-05T17:24:30.342Z,3.35
2022-10-05T17:26:33.395Z,3.00
2022-10-05T17:28:24.723Z,3.53
2022-10-05T17:30:23.508Z,3.75
2022-10-05T17:32:10.674Z,3.20
2022-10-05T17:34:26.483Z,3.20
2022-10-05T17:36:18.907Z,3.63
2022-10-05T17:38:14.096Z,3.42
2022-10-05T17:39:50.889Z,3.70
2022-10-05T17:41:26.257Z,3.40
2022-10-05T17:43:01.301Z,3.78
2022-10-05T17:44:34.357Z,4.00
2022-10-05T17:46:09.646Z,4.13
2022-10-05T17:47:59.708Z,3.90
2022-10-05T17:50:15.764Z,3.70
2022-10-05T17:52:39.359Z,4.10
2022-10-05T17:54:37.803Z,3.28
2022-10-05T17:56:10.787Z,3.90
2022-10-05T17:57:42.728Z,3.58
2022-10-05T17:59:40.070Z,3.67
2022-10-05T18:01:19.896Z,3.85
2022-10-05T18:02:56.427Z,3.72
2022-10-05T18:04:39.901Z,3.63
2022-10-05T18:06:34.203Z,4.32
2022-10-05T18:10:25.556Z,4.00
2022-10-05T18:12:25.308Z,3.58
2022-10-05T18:14:18.782Z,4.13
2022-10-05T18:15:53.291Z,3.90
2022-10-05T18:17:38.219Z,4.30
2022-10-05T18:19:17.184Z,4.40
2022-10-05T18:21:30.409Z,4.47
2022-10-05T18:23:35.243Z,4.40
2022-10-05T18:25:18.405Z,4.70
2022-10-05T18:27:01.363Z,5.25
2022-10-05T18:28:47.988Z,4.85
2022-10-05T18:30:23.293Z,4.97
2022-10-05T18:32:05.513Z,4.70
2022-10-05T18:33:49.236Z,5.00
2022-10-05T18:37:14.838Z,4.68
2022-10-05T18:39:01.963Z,4.40
2022-10-05T18:40:43.163Z,4.78
2022-10-05T18:42:25.370Z,4.53
2022-10-05T18:44:08.890Z,4.57
2022-10-05T18:45:55.869Z,4.22
2022-10-05T18:47:38.366Z,4.60
2022-10-05T18:49:26.768Z,4.70
2022-10-05T18:51:04.730Z,4.70
2022-10-05T18:52:50.629Z,4.30
2022-10-05T18:54:41.639Z,4.05
2022-10-05T18:56:22.586Z,4.25
2022-10-05T18:58:14.179Z,4.53
2022-10-05T18:59:55.452Z,3.92
2022-10-05T19:02:07.792Z,4.10
2022-10-05T19:03:54.771Z,3.70
2022-10-05T19:05:48.026Z,3.83
2022-10-05T19:07:32.995Z,4.10
2022-10-05T19:09:18.163Z,3.90
2022-10-05T19:10:56.064Z,4.03
2022-10-05T19:12:41.634Z,4.00
2022-10-05T19:14:24.260Z,4.00
2022-10-05T19:16:09.366Z,4.18
2022-10-05T19:18:10.317Z,4.07
2022-10-05T19:20:00.885Z,3.97
2022-10-05T19:21:39.370Z,4.15
2022-10-05T19:23:30.630Z,4.25
2022-10-05T19:25:21.313Z,4.90
2022-10-05T19:27:04.365Z,4.50
2022-10-05T19:28:43.402Z,4.72
2022-10-05T19:30:21.233Z,4.30
2022-10-05T19:32:02.434Z,4.25
2022-10-05T19:33:51.073Z,4.03
2022-10-05T19:35:33.841Z,4.13
2022-10-05T19:37:13.927Z,5.10
2022-10-05T19:38:58.725Z,4.25
2022-10-05T19:40:39.762Z,4.15
2022-10-05T19:42:44.601Z,4.53
2022-10-05T19:44:28.713Z,4.40
2022-10-05T19:46:07.879Z,4.30
2022-10-05T19:47:50.133Z,4.40
2022-10-05T19:49:58.990Z,4.45
2022-10-05T19:51:34.455Z,4.35
2022-10-05T19:53:14.128Z,4.20
2022-10-05T19:54:49.637Z,4.63
2022-10-05T19:56:25.381Z,4.65
2022-10-05T19:58:00.453Z,5.07
2022-10-05T19:59:34.643Z,5.13
2022-10-05T20:01:07.837Z,5.00
2022-10-05T20:02:42.124Z,5.03
2022-10-05T20:04:16.348Z,5.40
2022-10-05T20:05:50.376Z,4.88
2022-10-05T20:07:24.659Z,5.13
2022-10-05T20:09:02.051Z,4.80
2022-10-05T20:10:35.143Z,5.53
2022-10-05T20:12:07.145Z,4.80
2022-10-05T20:13:41.851Z,4.90
2022-10-05T20:15:37.482Z,4.80
2022-10-05T20:17:35.820Z,5.00
2022-10-05T20:19:45.336Z,4.97
2022-10-05T20:21:41.319Z,4.82
2022-10-05T20:23:27.912Z,4.70
2022-10-05T20:25:02.490Z,5.00
2022-10-05T20:26:56.963Z,5.07
2022-10-05T20:28:33.543Z,4.63
2022-10-05T20:30:08.396Z,4.63
2022-10-05T20:31:40.359Z,4.88
2022-10-05T20:33:14.715Z,5.15
2022-10-05T20:34:49.354Z,4.85
2022-10-05T20:36:21.348Z,5.55
2022-10-05T20:37:54.403Z,4.85
2022-10-05T20:39:30.459Z,4.97
2022-10-05T20:41:03.321Z,4.75
2022-10-05T20:42:36.244Z,5.18
2022-10-05T20:44:09.064Z,4.82
2022-10-05T20:45:43.265Z,4.97
2022-10-05T20:47:16.189Z,5.72
2022-10-05T20:48:49.136Z,5.53
2022-10-05T20:50:22.198Z,5.65
2022-10-05T20:51:55.900Z,5.13
2022-10-05T20:53:28.910Z,4.70
2022-10-05T20:55:03.133Z,5.20
2022-10-05T20:56:36.163Z,5.38
2022-10-05T20:58:10.999Z,5.60
2022-10-05T20:59:43.999Z,6.00
2022-10-05T21:01:16.493Z,6.18
2022-10-05T21:02:49.430Z,6.10
2022-10-05T21:04:24.027Z,6.05
2022-10-05T21:05:56.930Z,5.50
2022-10-05T21:07:29.813Z,6.10
2022-10-05T21:09:01.735Z,5.65
2022-10-05T21:10:36.863Z,6.70
2022-10-05T21:12:09.895Z,5.90
2022-10-05T21:13:44.704Z,6.53
2022-10-05T21:15:17.840Z,6.88
2022-10-05T21:16:50.923Z,6.78
2022-10-05T21:18:24.183Z,6.40
2022-10-05T21:21:29.951Z,6.13
2022-10-05T21:23:02.858Z,5.70
2022-10-05T21:24:36.739Z,5.65
2022-10-05T21:26:11.683Z,5.68
2022-10-05T21:27:44.723Z,6.03
2022-10-05T21:29:17.631Z,5.90
2022-10-05T21:30:50.497Z,6.13
2022-10-05T21:32:23.372Z,5.72
2022-10-05T21:33:55.515Z,5.90
2022-10-05T21:35:28.384Z,6.13
2022-10-05T21:37:01.220Z,6.70
2022-10-05T21:38:34.081Z,6.15
2022-10-05T21:40:07.679Z,6.68
2022-10-05T21:41:41.841Z,6.20
2022-10-05T21:43:15.136Z,6.15
2022-10-05T21:46:22.903Z,6.50
2022-10-05T21:47:56.833Z,6.63
2022-10-05T21:49:29.089Z,6.55
2022-10-05T21:51:03.176Z,6.68
2022-10-05T21:52:36.584Z,6.78
2022-10-05T21:54:12.664Z,6.07
2022-10-05T21:55:48.453Z,6.60
2022-10-05T21:57:22.771Z,6.65
2022-10-05T21:58:55.966Z,6.50
2022-10-05T22:00:28.908Z,6.35
2022-10-05T22:02:02.362Z,6.07
2022-10-05T22:03:34.322Z,6.00
2022-10-05T22:05:07.646Z,5.70
2022-10-05T22:08:20.742Z,5.95
2022-10-05T22:09:53.582Z,5.40
2022-10-05T22:11:27.946Z,6.30
2022-10-05T22:13:03.229Z,5.95
2022-10-05T22:14:36.060Z,5.90
2022-10-05T22:16:08.016Z,5.93
2022-10-05T22:17:42.156Z,5.53
2022-10-05T22:19:19.046Z,5.80
2022-10-05T22:20:53.113Z,5.00
2022-10-05T22:22:26.374Z,5.70
2022-10-05T22:24:00.180Z,6.10
2022-10-05T22:25:34.063Z,5.30
2022-10-05T22:27:07.105Z,5.47
2022-10-05T22:28:42.538Z,5.28
2022-10-05T22:30:15.760Z,5.05
2022-10-05T22:31:49.444Z,5.63
2022-10-05T22:33:21.355Z,5.80
2022-10-05T22:34:54.288Z,5.53
2022-10-05T22:36:27.721Z,5.93
2022-10-05T22:38:00.551Z,5.45
2022-10-05T22:39:33.767Z,5.03
2022-10-05T22:41:10.093Z,4.95
2022-10-05T22:42:43.047Z,4.90
2022-10-05T22:44:16.874Z,5.07
2022-10-05T22:45:50.130Z,5.30
2022-10-05T22:48:55.633Z,4.80
2022-10-05T22:50:27.546Z,5.13
2022-10-05T22:52:00.421Z,5.25
2022-10-05T22:53:33.431Z,5.38
2022-10-05T22:55:07.351Z,5.05
2022-10-05T22:56:40.184Z,4.97
2022-10-05T22:58:12.124Z,4.72
2022-10-05T22:59:46.550Z,5.07
2022-10-05T23:01:20.388Z,4.85
2022-10-05T23:02:53.381Z,4.90
2022-10-05T23:04:26.289Z,5.22
2022-10-05T23:06:02.964Z,4.88
2022-10-05T23:07:39.230Z,5.30
2022-10-05T23:09:12.400Z,5.00
2022-10-05T23:10:45.718Z,4.85
2022-10-05T23:13:53.648Z,4.63
2022-10-05T23:15:27.275Z,4.82
2022-10-05T23:17:00.163Z,4.90
2022-10-05T23:18:33.626Z,5.10
2022-10-05T23:20:08.058Z,5.63
2022-10-05T23:21:40.933Z,4.78
2022-10-05T23:23:12.830Z,5.80
2022-10-05T23:24:45.709Z,5.20
2022-10-05T23:26:19.871Z,5.53
2022-10-05T23:27:52.866Z,5.30
2022-10-05T23:29:24.756Z,5.32